createdAt,value
2022-09-11T00:01:32.674Z,15.91
2022-09-11T00:03:59.801Z,15.90
2022-09-11T00:06:30.052Z,15.90
2022-09-11T00:09:03.639Z,15.89
2022-09-11T00:11:37.720Z,15.87
2022-09-11T00:14:04.817Z,15.86
2022-09-11T00:16:37.239Z,15.85
2022-09-11T00:19:07.298Z,15.84
2022-09-11T00:21:34.676Z,15.79
2022-09-11T00:24:01.746Z,15.79
2022-09-11T00:26:28.486Z,15.79
2022-09-11T00:28:55.792Z,15.79
2022-09-11T00:31:26.429Z,15.79
2022-09-11T00:33:54.199Z,15.79
2022-09-11T00:36:25.859Z,15.78
2022-09-11T00:38:53.211Z,15.76
2022-09-11T00:41:29.040Z,15.73
2022-09-11T00:44:03.561Z,15.72
2022-09-11T00:46:44.751Z,15.71
2022-09-11T00:49:26.602Z,15.69
2022-09-11T00:51:56.109Z,15.67
2022-09-11T00:54:30.313Z,15.66
2022-09-11T00:57:00.484Z,15.64
2022-09-11T00:59:31.131Z,15.68
2022-09-11T01:01:58.027Z,15.69
2022-09-11T01:04:24.990Z,15.69
2022-09-11T01:06:56.082Z,15.69
2022-09-11T01:09:26.060Z,15.69
2022-09-11T01:12:19.808Z,15.74
2022-09-11T01:15:10.133Z,15.73
2022-09-11T01:17:58.781Z,15.73
2022-09-11T01:20:36.472Z,15.73
2022-09-11T01:23:20.374Z,15.71
2022-09-11T01:26:15.147Z,15.72
2022-09-11T01:29:09.203Z,15.70
2022-09-11T01:31:50.535Z,15.72
2022-09-11T01:34:55.555Z,15.71
2022-09-11T01:37:29.367Z,15.72
2022-09-11T01:40:04.184Z,15.74
2022-09-11T01:42:36.155Z,15.72
2022-09-11T01:45:05.891Z,15.75
2022-09-11T01:47:35.298Z,15.72
2022-09-11T01:50:22.985Z,15.71
2022-09-11T01:52:58.818Z,15.70
2022-09-11T01:55:39.208Z,15.70
2022-09-11T01:58:10.460Z,15.69
2022-09-11T02:00:45.714Z,15.69
2022-09-11T02:03:21.340Z,15.69
2022-09-11T02:05:58.039Z,15.69
2022-09-11T02:08:37.328Z,15.71
2022-09-11T02:11:10.750Z,15.71
2022-09-11T02:13:42.981Z,15.72
2022-09-11T02:16:19.539Z,15.71
2022-09-11T02:19:01.735Z,15.70
2022-09-11T02:21:29.262Z,15.71
2022-09-11T02:23:56.043Z,15.73
2022-09-11T02:26:29.200Z,15.71
2022-09-11T02:28:56.799Z,15.71
2022-09-11T02:31:24.482Z,15.71
2022-09-11T02:33:51.506Z,15.71
2022-09-11T02:36:49.881Z,15.67
2022-09-11T02:39:55.370Z,15.70
2022-09-11T02:42:31.293Z,15.68
2022-09-11T02:45:14.823Z,15.69
2022-09-11T02:48:08.654Z,15.69
2022-09-11T02:50:56.484Z,15.68
2022-09-11T02:53:35.455Z,15.65
2022-09-11T02:56:18.851Z,15.63
2022-09-11T02:59:07.385Z,15.65
2022-09-11T03:01:54.020Z,15.63
2022-09-11T03:04:25.057Z,15.58
2022-09-11T03:06:54.347Z,15.59
2022-09-11T03:09:21.155Z,15.57
2022-09-11T03:11:51.749Z,15.53
2022-09-11T03:14:19.839Z,15.53
2022-09-11T03:16:46.847Z,15.52
2022-09-11T03:19:14.214Z,15.52
2022-09-11T03:21:40.999Z,15.52
2022-09-11T03:24:07.969Z,15.52
2022-09-11T03:26:37.045Z,15.50
2022-09-11T03:29:04.274Z,15.50
2022-09-11T03:31:32.311Z,15.51
2022-09-11T03:34:00.678Z,15.51
2022-09-11T03:36:28.164Z,15.50
2022-09-11T03:38:54.977Z,15.50
2022-09-11T03:41:21.990Z,15.51
2022-09-11T03:43:48.719Z,15.49
2022-09-11T03:46:15.690Z,15.50
2022-09-11T03:48:42.499Z,15.52
2022-09-11T03:51:09.340Z,15.52
2022-09-11T03:53:36.126Z,15.50
2022-09-11T03:56:03.132Z,15.49
2022-09-11T03:58:35.229Z,15.49
2022-09-11T04:01:02.112Z,15.48
2022-09-11T04:03:29.723Z,15.47
2022-09-11T04:06:01.282Z,15.51
2022-09-11T04:08:30.995Z,15.52
2022-09-11T04:10:58.992Z,15.52
2022-09-11T04:13:31.150Z,15.53
2022-09-11T04:16:04.427Z,15.52
2022-09-11T04:18:37.369Z,15.50
2022-09-11T04:21:10.396Z,15.51
2022-09-11T04:23:38.539Z,15.54
2022-09-11T04:26:19.823Z,15.57
2022-09-11T04:28:51.282Z,15.54
2022-09-11T04:31:19.288Z,15.53
2022-09-11T04:33:47.652Z,15.54
2022-09-11T04:36:17.832Z,15.55
2022-09-11T04:38:46.394Z,15.55
2022-09-11T04:41:15.881Z,15.55
2022-09-11T04:43:43.165Z,15.60
2022-09-11T04:46:15.974Z,15.61
2022-09-11T04:48:48.881Z,15.60
2022-09-11T04:51:24.158Z,15.58
2022-09-11T04:53:52.416Z,15.57
2022-09-11T04:56:20.077Z,15.57
2022-09-11T04:58:53.684Z,15.60
2022-09-11T05:01:22.170Z,15.61
2022-09-11T05:03:51.987Z,15.65
2022-09-11T05:06:19.324Z,15.66
2022-09-11T05:08:47.652Z,15.67
2022-09-11T05:11:18.667Z,15.68
2022-09-11T05:13:46.846Z,15.72
2022-09-11T05:16:16.681Z,15.73
2022-09-11T05:18:49.198Z,15.75
2022-09-11T05:21:16.683Z,15.74
2022-09-11T05:23:47.923Z,15.76
2022-09-11T05:26:18.203Z,15.75
2022-09-11T05:28:45.592Z,15.77
2022-09-11T05:31:17.975Z,15.76
2022-09-11T05:33:45.802Z,15.74
2022-09-11T05:36:14.542Z,15.73
2022-09-11T05:38:42.356Z,15.67
2022-09-11T05:41:12.713Z,15.55
2022-09-11T05:43:41.678Z,15.52
2022-09-11T05:46:11.916Z,15.49
2022-09-11T05:48:39.164Z,15.48
2022-09-11T05:51:09.816Z,15.46
2022-09-11T05:53:37.597Z,15.44
2022-09-11T05:56:08.599Z,15.42
2022-09-11T05:58:36.399Z,15.43
2022-09-11T06:01:11.183Z,15.44
2022-09-11T06:03:40.425Z,15.48
2022-09-11T06:06:12.444Z,15.48
2022-09-11T06:08:40.996Z,15.47
2022-09-11T06:11:08.468Z,15.46
2022-09-11T06:13:38.868Z,15.46
2022-09-11T06:16:18.587Z,15.50
2022-09-11T06:18:47.601Z,15.55
2022-09-11T06:21:15.511Z,15.60
2022-09-11T06:23:50.835Z,15.56
2022-09-11T06:26:25.192Z,15.52
2022-09-11T06:28:54.396Z,15.49
2022-09-11T06:31:26.070Z,15.49
2022-09-11T06:33:54.718Z,15.50
2022-09-11T06:36:24.116Z,15.53
2022-09-11T06:38:56.349Z,15.54
2022-09-11T06:41:26.394Z,15.56
2022-09-11T06:43:58.396Z,15.55
2022-09-11T06:46:27.495Z,15.61
2022-09-11T06:48:56.973Z,15.64
2022-09-11T06:51:26.681Z,15.67
2022-09-11T06:53:55.421Z,15.68
2022-09-11T06:56:22.233Z,15.72
2022-09-11T06:58:50.422Z,15.72
2022-09-11T07:01:20.344Z,15.70
2022-09-11T07:03:54.845Z,15.71
2022-09-11T07:06:27.328Z,15.71
2022-09-11T07:08:58.152Z,15.70
2022-09-11T07:11:25.673Z,15.70
2022-09-11T07:13:53.949Z,15.70
2022-09-11T07:16:20.763Z,15.72
2022-09-11T07:18:53.875Z,15.73
2022-09-11T07:21:25.675Z,15.75
2022-09-11T07:23:59.440Z,15.70
2022-09-11T07:26:31.022Z,15.70
2022-09-11T07:29:04.318Z,15.66
2022-09-11T07:31:32.961Z,15.67
2022-09-11T07:34:00.700Z,15.68
2022-09-11T07:36:30.120Z,15.67
2022-09-11T07:38:58.144Z,15.70
2022-09-11T07:41:32.203Z,15.74
2022-09-11T07:44:03.267Z,15.76
2022-09-11T07:46:31.813Z,15.79
2022-09-11T07:49:02.415Z,15.85
2022-09-11T07:51:30.503Z,15.93
2022-09-11T07:54:02.573Z,15.99
2022-09-11T07:56:33.872Z,16.07
2022-09-11T07:59:02.289Z,16.08
2022-09-11T08:01:31.416Z,16.16
2022-09-11T08:04:01.443Z,16.23
2022-09-11T08:06:31.064Z,16.28
2022-09-11T08:09:03.941Z,16.37
2022-09-11T08:11:37.574Z,16.46
2022-09-11T08:14:04.504Z,16.42
2022-09-11T08:16:32.152Z,16.40
2022-09-11T08:19:00.397Z,16.42
2022-09-11T08:21:27.275Z,16.46
2022-09-11T08:23:54.527Z,16.48
2022-09-11T08:26:27.465Z,16.58
2022-09-11T08:28:57.958Z,16.67
2022-09-11T08:31:27.989Z,16.71
2022-09-11T08:33:57.576Z,16.69
2022-09-11T08:36:24.695Z,16.75
2022-09-11T08:38:52.998Z,16.78
2022-09-11T08:41:23.770Z,16.81
2022-09-11T08:44:13.055Z,16.74
2022-09-11T08:46:48.455Z,16.81
2022-09-11T08:49:29.022Z,16.86
2022-09-11T08:52:01.380Z,16.83
2022-09-11T08:54:33.117Z,16.81
2022-09-11T08:57:14.470Z,16.84
2022-09-11T09:00:06.982Z,16.85
2022-09-11T09:03:13.377Z,16.88
2022-09-11T09:06:08.083Z,16.85
2022-09-11T09:08:49.904Z,16.95
2022-09-11T09:11:51.166Z,17.04
2022-09-11T09:14:42.385Z,17.22
2022-09-11T09:17:22.228Z,17.39
2022-09-11T09:20:04.410Z,17.47
2022-09-11T09:22:48.625Z,17.45
2022-09-11T09:25:21.329Z,17.39
2022-09-11T09:27:57.928Z,17.30
2022-09-11T09:30:25.367Z,17.23
2022-09-11T09:32:55.637Z,17.22
2022-09-11T09:35:45.269Z,17.28
2022-09-11T09:38:26.414Z,17.43
2022-09-11T09:41:03.578Z,17.47
2022-09-11T09:43:45.559Z,17.41
2022-09-11T09:46:36.156Z,17.38
2022-09-11T09:49:03.200Z,17.34
2022-09-11T09:51:30.031Z,17.36
2022-09-11T09:54:01.522Z,17.38
2022-09-11T09:56:31.370Z,17.44
2022-09-11T09:59:18.869Z,17.51
2022-09-11T10:01:51.405Z,17.54
2022-09-11T10:04:20.548Z,17.64
2022-09-11T10:06:50.682Z,17.66
2022-09-11T10:09:29.547Z,17.70
2022-09-11T10:12:02.482Z,17.74
2022-09-11T10:14:50.292Z,17.75
2022-09-11T10:17:28.334Z,17.66
2022-09-11T10:19:56.884Z,17.54
2022-09-11T10:22:29.665Z,17.45
2022-09-11T10:25:09.596Z,17.35
2022-09-11T10:27:58.477Z,17.23
2022-09-11T10:30:37.446Z,16.92
2022-09-11T10:33:33.692Z,16.80
2022-09-11T10:36:03.787Z,16.72
2022-09-11T10:38:51.503Z,16.62
2022-09-11T10:41:23.465Z,16.59
2022-09-11T10:44:23.445Z,16.64
2022-09-11T10:47:05.879Z,16.68
2022-09-11T10:49:32.926Z,16.75
2022-09-11T10:52:17.434Z,16.77
2022-09-11T10:55:12.437Z,16.80
2022-09-11T10:57:45.252Z,16.93
2022-09-11T11:00:25.130Z,16.96
2022-09-11T11:03:10.655Z,16.94
2022-09-11T11:05:45.971Z,16.93
2022-09-11T11:08:15.778Z,16.96
2022-09-11T11:11:01.555Z,16.91
2022-09-11T11:13:39.644Z,16.78
2022-09-11T11:16:43.680Z,16.69
2022-09-11T11:19:31.972Z,16.59
2022-09-11T11:22:22.212Z,16.43
2022-09-11T11:25:16.369Z,16.12
2022-09-11T11:28:11.186Z,15.98
2022-09-11T11:31:15.824Z,15.95
2022-09-11T11:33:42.583Z,15.93
2022-09-11T11:36:33.444Z,15.90
2022-09-11T11:39:16.574Z,15.88
2022-09-11T11:41:47.026Z,15.87
2022-09-11T11:44:50.544Z,15.85
2022-09-11T11:47:21.854Z,15.80
2022-09-11T11:50:03.679Z,15.79
2022-09-11T11:52:33.165Z,15.80
2022-09-11T11:55:15.927Z,15.81
2022-09-11T11:57:50.938Z,15.88
2022-09-11T12:00:18.718Z,15.94
2022-09-11T12:03:10.642Z,15.98
2022-09-11T12:05:38.664Z,16.00
2022-09-11T12:08:12.339Z,16.02
2022-09-11T12:10:41.850Z,16.04
2022-09-11T12:13:19.920Z,16.08
2022-09-11T12:16:11.359Z,16.08
2022-09-11T12:18:38.951Z,15.98
2022-09-11T12:21:31.816Z,15.89
2022-09-11T12:23:58.571Z,15.74
2022-09-11T12:26:26.911Z,15.54
2022-09-11T12:29:12.952Z,15.38
2022-09-11T12:31:52.028Z,15.21
2022-09-11T12:34:52.259Z,15.14
2022-09-11T12:37:35.426Z,15.11
2022-09-11T12:40:14.161Z,15.12
2022-09-11T12:42:56.560Z,15.09
2022-09-11T12:45:32.584Z,15.11
2022-09-11T12:48:12.682Z,15.12
2022-09-11T12:50:48.119Z,15.14
2022-09-11T12:53:21.068Z,15.14
2022-09-11T12:56:08.402Z,15.13
2022-09-11T12:58:39.153Z,15.16
2022-09-11T13:01:11.625Z,15.23
2022-09-11T13:03:49.559Z,15.38
2022-09-11T13:06:17.704Z,15.54
2022-09-11T13:08:55.632Z,15.68
2022-09-11T13:11:47.003Z,15.84
2022-09-11T13:14:28.125Z,15.93
2022-09-11T13:17:03.627Z,16.03
2022-09-11T13:19:37.094Z,16.18
2022-09-11T13:22:29.377Z,16.34
2022-09-11T13:25:22.604Z,16.48
2022-09-11T13:27:52.727Z,16.55
2022-09-11T13:30:22.307Z,16.67
2022-09-11T13:32:59.637Z,16.78
2022-09-11T13:35:29.280Z,16.90
2022-09-11T13:38:11.186Z,17.00
2022-09-11T13:40:58.847Z,17.06
2022-09-11T13:43:33.014Z,17.10
2022-09-11T13:46:10.818Z,17.14
2022-09-11T13:48:37.638Z,17.16
2022-09-11T13:51:05.075Z,17.22
2022-09-11T13:53:32.856Z,17.35
2022-09-11T13:55:59.592Z,17.42
2022-09-11T13:58:30.863Z,17.52
2022-09-11T14:01:10.651Z,17.61
2022-09-11T14:03:42.832Z,17.66
2022-09-11T14:06:15.330Z,17.76
2022-09-11T14:08:49.004Z,17.82
2022-09-11T14:11:28.052Z,17.88
2022-09-11T14:14:30.021Z,17.93
2022-09-11T14:16:59.980Z,18.06
2022-09-11T14:19:31.253Z,18.18
2022-09-11T14:21:59.064Z,18.18
2022-09-11T14:24:27.097Z,18.12
2022-09-11T14:26:54.464Z,18.02
2022-09-11T14:29:26.006Z,18.08
2022-09-11T14:31:53.479Z,18.22
2022-09-11T14:34:29.474Z,18.29
2022-09-11T14:37:11.334Z,18.24
2022-09-11T14:39:47.554Z,18.17
2022-09-11T14:42:22.635Z,18.24
2022-09-11T14:44:49.598Z,18.17
2022-09-11T14:47:19.218Z,18.19
2022-09-11T14:49:47.150Z,18.23
2022-09-11T14:52:17.049Z,18.35
2022-09-11T14:54:44.809Z,18.38
2022-09-11T14:57:17.215Z,18.37
2022-09-11T14:59:47.151Z,18.38
2022-09-11T15:02:18.252Z,18.42
2022-09-11T15:04:45.061Z,18.38
2022-09-11T15:07:13.677Z,18.36
2022-09-11T15:09:41.401Z,18.40
2022-09-11T15:12:09.919Z,18.45
2022-09-11T15:14:55.544Z,18.49
2022-09-11T15:17:22.797Z,18.42
2022-09-11T15:19:49.609Z,18.37
2022-09-11T15:22:17.177Z,18.32
2022-09-11T15:24:43.901Z,18.25
2022-09-11T15:27:10.663Z,18.24
2022-09-11T15:29:37.524Z,18.25
2022-09-11T15:32:04.516Z,18.31
2022-09-11T15:34:31.262Z,18.32
2022-09-11T15:36:58.223Z,18.30
2022-09-11T15:39:25.066Z,18.27
2022-09-11T15:41:52.539Z,18.30
2022-09-11T15:44:22.287Z,18.39
2022-09-11T15:46:51.088Z,18.50
2022-09-11T15:49:19.289Z,18.55
2022-09-11T15:51:46.166Z,18.52
2022-09-11T15:54:13.088Z,18.46
2022-09-11T15:56:39.875Z,18.41
2022-09-11T15:59:06.609Z,18.35
2022-09-11T16:01:35.089Z,18.26
2022-09-11T16:04:08.393Z,18.14
2022-09-11T16:06:38.401Z,18.06
2022-09-11T16:09:08.397Z,17.98
2022-09-11T16:11:35.618Z,17.82
2022-09-11T16:14:03.349Z,17.64
2022-09-11T16:16:30.038Z,17.31
2022-09-11T16:18:56.879Z,17.00
2022-09-11T16:21:23.615Z,16.91
2022-09-11T16:23:55.015Z,16.81
2022-09-11T16:26:23.580Z,16.70
2022-09-11T16:28:50.479Z,16.69
2022-09-11T16:31:17.275Z,16.57
2022-09-11T16:33:44.644Z,16.50
2022-09-11T16:36:17.308Z,16.55
2022-09-11T16:38:45.742Z,16.60
2022-09-11T16:41:15.311Z,16.60
2022-09-11T16:43:44.238Z,16.67
2022-09-11T16:46:13.908Z,16.63
2022-09-11T16:48:41.595Z,16.64
2022-09-11T16:51:08.361Z,16.64
2022-09-11T16:53:35.532Z,16.69
2022-09-11T16:56:10.310Z,16.64
2022-09-11T16:58:37.965Z,16.61
2022-09-11T17:01:09.464Z,16.58
2022-09-11T17:03:41.399Z,16.59
2022-09-11T17:06:09.514Z,16.58
2022-09-11T17:08:36.404Z,16.56
2022-09-11T17:11:03.148Z,16.56
2022-09-11T17:13:30.055Z,16.56
2022-09-11T17:16:05.464Z,16.51
2022-09-11T17:18:33.286Z,16.49
2022-09-11T17:21:04.527Z,16.49
2022-09-11T17:23:35.610Z,16.48
2022-09-11T17:26:07.606Z,16.47
2022-09-11T17:28:37.056Z,16.44
2022-09-11T17:31:05.476Z,16.41
2022-09-11T17:33:35.132Z,16.38
2022-09-11T17:36:04.107Z,16.40
2022-09-11T17:38:31.531Z,16.39
2022-09-11T17:41:00.369Z,16.39
2022-09-11T17:43:27.766Z,16.34
2022-09-11T17:46:07.103Z,16.25
2022-09-11T17:48:34.941Z,16.32
2022-09-11T17:51:08.260Z,16.38
2022-09-11T17:53:38.395Z,16.40
2022-09-11T17:56:09.478Z,16.41
2022-09-11T17:58:37.564Z,16.41
2022-09-11T18:01:05.236Z,16.42
2022-09-11T18:03:33.124Z,16.41
2022-09-11T18:06:02.110Z,16.41
2022-09-11T18:08:37.173Z,16.39
2022-09-11T18:11:07.102Z,16.37
2022-09-11T18:13:34.593Z,16.34
2022-09-11T18:16:03.679Z,16.34
2022-09-11T18:18:31.415Z,16.33
2022-09-11T18:21:04.882Z,16.30
2022-09-11T18:23:32.177Z,16.28
2022-09-11T18:25:59.878Z,16.25
2022-09-11T18:28:27.216Z,16.24
2022-09-11T18:31:01.702Z,16.21
2022-09-11T18:33:29.038Z,16.22
2022-09-11T18:35:56.469Z,16.19
2022-09-11T18:38:23.858Z,16.15
2022-09-11T18:40:55.480Z,16.16
2022-09-11T18:43:22.815Z,16.13
2022-09-11T18:45:49.630Z,16.12
2022-09-11T18:48:16.791Z,16.08
2022-09-11T18:50:44.002Z,16.07
2022-09-11T18:53:11.247Z,16.04
2022-09-11T18:55:38.636Z,16.02
2022-09-11T18:58:06.113Z,16.02
2022-09-11T19:00:33.329Z,15.98
2022-09-11T19:03:00.364Z,15.94
2022-09-11T19:05:27.336Z,15.93
2022-09-11T19:07:56.448Z,15.92
2022-09-11T19:10:24.630Z,15.86
2022-09-11T19:12:51.598Z,15.82
2022-09-11T19:15:19.058Z,15.84
2022-09-11T19:17:48.046Z,15.79
2022-09-11T19:20:17.049Z,15.74
2022-09-11T19:22:44.263Z,15.71
2022-09-11T19:25:11.097Z,15.69
2022-09-11T19:27:38.109Z,15.66
2022-09-11T19:30:06.346Z,15.64
2022-09-11T19:32:33.860Z,15.60
2022-09-11T19:35:01.015Z,15.60
2022-09-11T19:37:28.132Z,15.59
2022-09-11T19:39:55.294Z,15.57
2022-09-11T19:42:22.629Z,15.57
2022-09-11T19:44:53.044Z,15.57
2022-09-11T19:47:22.704Z,15.56
2022-09-11T19:49:49.824Z,15.54
2022-09-11T19:52:16.788Z,15.53
2022-09-11T19:54:43.817Z,15.51
2022-09-11T19:57:10.741Z,15.55
2022-09-11T19:59:37.712Z,15.53
2022-09-11T20:02:05.847Z,15.55
2022-09-11T20:04:32.992Z,15.60
2022-09-11T20:07:00.512Z,15.57
2022-09-11T20:09:31.299Z,15.57
2022-09-11T20:12:00.726Z,15.61
2022-09-11T20:14:29.030Z,15.59
2022-09-11T20:16:55.793Z,15.57
2022-09-11T20:19:22.668Z,15.53
2022-09-11T20:21:49.655Z,15.51
2022-09-11T20:24:16.441Z,15.49
2022-09-11T20:26:43.214Z,15.49
2022-09-11T20:29:13.874Z,15.47
2022-09-11T20:31:46.994Z,15.53
2022-09-11T20:34:16.268Z,15.50
2022-09-11T20:36:43.172Z,15.48
2022-09-11T20:39:12.035Z,15.44
2022-09-11T20:41:39.684Z,15.44
2022-09-11T20:44:08.126Z,15.46
2022-09-11T20:46:34.946Z,15.41
2022-09-11T20:49:01.862Z,15.42
2022-09-11T20:51:28.958Z,15.43
2022-09-11T20:53:56.159Z,15.41
2022-09-11T20:56:23.639Z,15.39
2022-09-11T20:58:50.698Z,15.42
2022-09-11T21:01:21.040Z,15.41
2022-09-11T21:03:53.454Z,15.39
2022-09-11T21:06:25.519Z,15.36
2022-09-11T21:08:54.752Z,15.33
2022-09-11T21:11:22.192Z,15.30
2022-09-11T21:13:49.016Z,15.24
2022-09-11T21:16:16.668Z,15.26
2022-09-11T21:18:49.510Z,15.17
2022-09-11T21:21:17.408Z,15.17
2022-09-11T21:23:45.289Z,15.14
2022-09-11T21:26:14.354Z,15.13
2022-09-11T21:28:41.875Z,15.08
2022-09-11T21:31:09.797Z,15.09
2022-09-11T21:33:37.913Z,15.27
2022-09-11T21:36:05.976Z,15.27
2022-09-11T21:38:33.219Z,15.35
2022-09-11T21:41:01.725Z,15.37
2022-09-11T21:43:29.098Z,15.40
2022-09-11T21:45:56.158Z,15.36
2022-09-11T21:48:24.074Z,15.36
2022-09-11T21:50:51.365Z,15.37
2022-09-11T21:53:18.969Z,15.36
2022-09-11T21:55:47.341Z,15.32
2022-09-11T21:58:21.009Z,15.31
2022-09-11T22:00:49.328Z,15.28
2022-09-11T22:03:18.375Z,15.25
2022-09-11T22:05:47.235Z,15.25
2022-09-11T22:08:17.611Z,15.27
2022-09-11T22:10:47.007Z,15.25
2022-09-11T22:13:14.220Z,15.22
2022-09-11T22:15:46.514Z,15.22
2022-09-11T22:18:14.352Z,15.20
2022-09-11T22:20:42.141Z,15.20
2022-09-11T22:23:14.855Z,15.23
2022-09-11T22:25:41.683Z,15.20
2022-09-11T22:28:08.912Z,15.18
2022-09-11T22:30:36.254Z,15.20
2022-09-11T22:33:03.105Z,15.19
2022-09-11T22:35:34.675Z,15.21
2022-09-11T22:38:01.481Z,15.18
2022-09-11T22:40:28.334Z,15.13
2022-09-11T22:42:55.066Z,15.17
2022-09-11T22:45:21.863Z,15.14
2022-09-11T22:47:48.643Z,15.11
2022-09-11T22:50:15.603Z,15.09
2022-09-11T22:52:42.447Z,15.11
2022-09-11T22:55:09.573Z,15.08
2022-09-11T22:57:36.515Z,15.11
2022-09-11T23:00:07.975Z,15.09
2022-09-11T23:02:35.380Z,15.00
2022-09-11T23:05:03.328Z,15.01
2022-09-11T23:07:30.249Z,15.02
2022-09-11T23:09:57.078Z,15.02
2022-09-11T23:12:23.889Z,15.00
2022-09-11T23:14:50.688Z,15.00
2022-09-11T23:17:17.520Z,14.95
2022-09-11T23:19:44.258Z,14.95
2022-09-11T23:22:11.226Z,14.92
2022-09-11T23:24:37.976Z,14.90
2022-09-11T23:27:04.921Z,14.86
2022-09-11T23:29:31.790Z,14.80
2022-09-11T23:31:58.642Z,14.77
2022-09-11T23:34:25.570Z,14.73
2022-09-11T23:36:52.369Z,14.70
2022-09-11T23:39:19.191Z,14.71
2022-09-11T23:41:45.922Z,14.70
2022-09-11T23:44:12.773Z,14.71
2022-09-11T23:46:39.460Z,14.69
2022-09-11T23:49:06.359Z,14.68
2022-09-11T23:51:33.424Z,14.70
2022-09-11T23:54:00.201Z,14.68
2022-09-11T23:56:26.993Z,14.65
2022-09-11T23:58:53.833Z,14.68
